sensor_id;sensor_type;location;lat;lon;timestamp;P1;durP1;ratioP1;P2;durP2;ratioP2
5967;SDS011;3010;51.028;4.170;2023-07-16T00:00:09;3.83;;;2.83;;
5967;SDS011;3010;51.028;4.170;2023-07-16T00:02:37;9.57;;;3.10;;
5967;SDS011;3010;51.028;4.170;2023-07-16T00:05:02;6.87;;;2.90;;
5967;SDS011;3010;51.028;4.170;2023-07-16T00:07:29;6.23;;;2.30;;
5967;SDS011;3010;51.028;4.170;2023-07-16T00:09:55;4.67;;;2.70;;
5967;SDS011;3010;51.028;4.170;2023-07-16T00:12:22;6.03;;;3.15;;
5967;SDS011;3010;51.028;4.170;2023-07-16T00:14:49;4.07;;;2.70;;
5967;SDS011;3010;51.028;4.170;2023-07-16T00:17:15;5.37;;;2.80;;
5967;SDS011;3010;51.028;4.170;2023-07-16T00:19:42;5.10;;;2.83;;
5967;SDS011;3010;51.028;4.170;2023-07-16T00:22:08;4.70;;;2.90;;
5967;SDS011;3010;51.028;4.170;2023-07-16T00:24:35;7.87;;;3.03;;
5967;SDS011;3010;51.028;4.170;2023-07-16T00:27:01;7.33;;;2.70;;
5967;SDS011;3010;51.028;4.170;2023-07-16T00:29:28;6.97;;;2.87;;
5967;SDS011;3010;51.028;4.170;2023-07-16T00:31:55;4.17;;;2.60;;
5967;SDS011;3010;51.028;4.170;2023-07-16T00:34:21;4.40;;;2.60;;
5967;SDS011;3010;51.028;4.170;2023-07-16T00:36:48;5.13;;;2.60;;
5967;SDS011;3010;51.028;4.170;2023-07-16T00:39:14;4.27;;;2.20;;
5967;SDS011;3010;51.028;4.170;2023-07-16T00:41:41;3.80;;;2.47;;
5967;SDS011;3010;51.028;4.170;2023-07-16T00:44:08;4.90;;;2.63;;
5967;SDS011;3010;51.028;4.170;2023-07-16T00:46:34;8.23;;;2.60;;
5967;SDS011;3010;51.028;4.170;2023-07-16T00:49:01;8.07;;;2.70;;
5967;SDS011;3010;51.028;4.170;2023-07-16T00:51:27;3.80;;;2.77;;
5967;SDS011;3010;51.028;4.170;2023-07-16T00:53:54;5.87;;;2.70;;
5967;SDS011;3010;51.028;4.170;2023-07-16T00:56:20;6.20;;;2.30;;
5967;SDS011;3010;51.028;4.170;2023-07-16T00:58:47;6.25;;;2.80;;
5967;SDS011;3010;51.028;4.170;2023-07-16T01:01:14;6.47;;;3.13;;
5967;SDS011;3010;51.028;4.170;2023-07-16T01:03:40;4.37;;;2.83;;
5967;SDS011;3010;51.028;4.170;2023-07-16T01:06:11;5.70;;;2.60;;
5967;SDS011;3010;51.028;4.170;2023-07-16T01:11:15;7.93;;;3.07;;
5967;SDS011;3010;51.028;4.170;2023-07-16T01:13:42;5.20;;;2.50;;
5967;SDS011;3010;51.028;4.170;2023-07-16T01:16:30;4.07;;;2.60;;
5967;SDS011;3010;51.028;4.170;2023-07-16T01:18:47;6.33;;;2.77;;
5967;SDS011;3010;51.028;4.170;2023-07-16T01:21:14;5.00;;;2.67;;
5967;SDS011;3010;51.028;4.170;2023-07-16T01:27:17;4.13;;;2.87;;
5967;SDS011;3010;51.028;4.170;2023-07-16T01:31:55;6.90;;;3.00;;
5967;SDS011;3010;51.028;4.170;2023-07-16T01:34:22;4.10;;;2.77;;
5967;SDS011;3010;51.028;4.170;2023-07-16T01:36:48;5.35;;;2.92;;
5967;SDS011;3010;51.028;4.170;2023-07-16T01:39:14;3.27;;;2.83;;
5967;SDS011;3010;51.028;4.170;2023-07-16T01:41:41;7.37;;;2.80;;
5967;SDS011;3010;51.028;4.170;2023-07-16T01:44:07;5.80;;;3.20;;
5967;SDS011;3010;51.028;4.170;2023-07-16T01:46:34;7.23;;;3.43;;
5967;SDS011;3010;51.028;4.170;2023-07-16T01:49:01;5.33;;;2.93;;
5967;SDS011;3010;51.028;4.170;2023-07-16T01:51:27;4.47;;;2.97;;
5967;SDS011;3010;51.028;4.170;2023-07-16T01:53:54;4.57;;;3.27;;
5967;SDS011;3010;51.028;4.170;2023-07-16T01:56:20;3.10;;;2.80;;
5967;SDS011;3010;51.028;4.170;2023-07-16T01:58:47;7.33;;;2.80;;
5967;SDS011;3010;51.028;4.170;2023-07-16T02:01:14;4.63;;;3.03;;
5967;SDS011;3010;51.028;4.170;2023-07-16T02:03:40;7.27;;;3.27;;
5967;SDS011;3010;51.028;4.170;2023-07-16T02:06:07;6.95;;;3.85;;
5967;SDS011;3010;51.028;4.170;2023-07-16T02:08:33;4.60;;;3.60;;
5967;SDS011;3010;51.028;4.170;2023-07-16T02:11:00;4.90;;;3.53;;
5967;SDS011;3010;51.028;4.170;2023-07-16T02:13:27;4.93;;;3.60;;
5967;SDS011;3010;51.028;4.170;2023-07-16T02:15:53;8.87;;;4.23;;
5967;SDS011;3010;51.028;4.170;2023-07-16T02:18:20;4.27;;;3.87;;
5967;SDS011;3010;51.028;4.170;2023-07-16T02:20:46;5.78;;;4.15;;
5967;SDS011;3010;51.028;4.170;2023-07-16T02:23:13;4.83;;;4.33;;
5967;SDS011;3010;51.028;4.170;2023-07-16T02:25:39;7.63;;;4.07;;
5967;SDS011;3010;51.028;4.170;2023-07-16T02:28:07;4.57;;;3.90;;
5967;SDS011;3010;51.028;4.170;2023-07-16T02:30:34;5.87;;;4.37;;
5967;SDS011;3010;51.028;4.170;2023-07-16T02:33:00;6.30;;;3.93;;
5967;SDS011;3010;51.028;4.170;2023-07-16T02:35:27;5.83;;;3.50;;
5967;SDS011;3010;51.028;4.170;2023-07-16T02:37:54;9.03;;;4.10;;
5967;SDS011;3010;51.028;4.170;2023-07-16T02:40:20;6.70;;;3.97;;
5967;SDS011;3010;51.028;4.170;2023-07-16T02:42:47;7.20;;;4.10;;
5967;SDS011;3010;51.028;4.170;2023-07-16T02:45:13;5.37;;;4.37;;
5967;SDS011;3010;51.028;4.170;2023-07-16T02:47:40;4.80;;;4.30;;
5967;SDS011;3010;51.028;4.170;2023-07-16T02:50:07;6.93;;;4.27;;
5967;SDS011;3010;51.028;4.170;2023-07-16T02:52:33;5.33;;;4.30;;
5967;SDS011;3010;51.028;4.170;2023-07-16T02:55:00;5.67;;;4.20;;
5967;SDS011;3010;51.028;4.170;2023-07-16T02:57:26;6.30;;;4.30;;
5967;SDS011;3010;51.028;4.170;2023-07-16T02:59:53;4.30;;;3.90;;
5967;SDS011;3010;51.028;4.170;2023-07-16T03:02:20;7.93;;;3.97;;
5967;SDS011;3010;51.028;4.170;2023-07-16T03:04:46;5.33;;;4.10;;
5967;SDS011;3010;51.028;4.170;2023-07-16T03:07:13;6.47;;;4.83;;
5967;SDS011;3010;51.028;4.170;2023-07-16T03:09:39;6.07;;;4.40;;
5967;SDS011;3010;51.028;4.170;2023-07-16T03:12:06;6.95;;;4.90;;
5967;SDS011;3010;51.028;4.170;2023-07-16T03:14:33;8.02;;;5.15;;
5967;SDS011;3010;51.028;4.170;2023-07-16T03:16:59;8.30;;;5.03;;
5967;SDS011;3010;51.028;4.170;2023-07-16T03:19:26;6.03;;;4.87;;
5967;SDS011;3010;51.028;4.170;2023-07-16T03:21:52;7.80;;;5.00;;
5967;SDS011;3010;51.028;4.170;2023-07-16T03:24:19;7.00;;;4.60;;
5967;SDS011;3010;51.028;4.170;2023-07-16T03:26:46;7.33;;;5.07;;
5967;SDS011;3010;51.028;4.170;2023-07-16T03:29:12;5.87;;;5.17;;
5967;SDS011;3010;51.028;4.170;2023-07-16T03:31:39;9.07;;;5.63;;
5967;SDS011;3010;51.028;4.170;2023-07-16T03:34:05;7.57;;;5.20;;
5967;SDS011;3010;51.028;4.170;2023-07-16T03:36:32;9.33;;;5.67;;
5967;SDS011;3010;51.028;4.170;2023-07-16T03:38:58;8.50;;;5.30;;
5967;SDS011;3010;51.028;4.170;2023-07-16T03:41:25;12.50;;;5.57;;
5967;SDS011;3010;51.028;4.170;2023-07-16T03:43:52;7.62;;;6.00;;
5967;SDS011;3010;51.028;4.170;2023-07-16T03:46:18;6.33;;;5.20;;
5967;SDS011;3010;51.028;4.170;2023-07-16T03:48:45;10.70;;;5.40;;
5967;SDS011;3010;51.028;4.170;2023-07-16T03:51:11;8.60;;;5.87;;
5967;SDS011;3010;51.028;4.170;2023-07-16T03:53:38;7.03;;;5.27;;
5967;SDS011;3010;51.028;4.170;2023-07-16T03:56:05;8.23;;;5.53;;
5967;SDS011;3010;51.028;4.170;2023-07-16T03:58:31;8.13;;;5.70;;
5967;SDS011;3010;51.028;4.170;2023-07-16T04:00:58;8.93;;;5.70;;
5967;SDS011;3010;51.028;4.170;2023-07-16T04:03:24;7.40;;;5.13;;
5967;SDS011;3010;51.028;4.170;2023-07-16T04:05:51;5.73;;;5.13;;
5967;SDS011;3010;51.028;4.170;2023-07-16T04:08:17;9.80;;;5.90;;
5967;SDS011;3010;51.028;4.170;2023-07-16T04:10:44;9.13;;;5.57;;
5967;SDS011;3010;51.028;4.170;2023-07-16T04:13:11;8.67;;;5.40;;
5967;SDS011;3010;51.028;4.170;2023-07-16T04:15:37;7.70;;;5.80;;
5967;SDS011;3010;51.028;4.170;2023-07-16T04:18:04;11.10;;;6.30;;
5967;SDS011;3010;51.028;4.170;2023-07-16T04:20:30;9.70;;;5.13;;
5967;SDS011;3010;51.028;4.170;2023-07-16T04:22:57;11.13;;;6.07;;
5967;SDS011;3010;51.028;4.170;2023-07-16T04:25:24;8.97;;;5.90;;
5967;SDS011;3010;51.028;4.170;2023-07-16T04:27:50;11.10;;;6.00;;
5967;SDS011;3010;51.028;4.170;2023-07-16T04:30:17;11.68;;;6.55;;
5967;SDS011;3010;51.028;4.170;2023-07-16T04:32:43;10.10;;;6.73;;
5967;SDS011;3010;51.028;4.170;2023-07-16T04:35:10;8.93;;;6.43;;
5967;SDS011;3010;51.028;4.170;2023-07-16T04:37:36;13.87;;;6.10;;
5967;SDS011;3010;51.028;4.170;2023-07-16T04:40:03;9.53;;;5.80;;
5967;SDS011;3010;51.028;4.170;2023-07-16T04:42:30;10.15;;;6.78;;
5967;SDS011;3010;51.028;4.170;2023-07-16T04:44:56;9.40;;;6.40;;
5967;SDS011;3010;51.028;4.170;2023-07-16T04:47:23;9.30;;;6.33;;
5967;SDS011;3010;51.028;4.170;2023-07-16T04:49:50;8.93;;;6.20;;
5967;SDS011;3010;51.028;4.170;2023-07-16T04:52:16;12.30;;;6.27;;
5967;SDS011;3010;51.028;4.170;2023-07-16T04:54:43;12.27;;;6.10;;
5967;SDS011;3010;51.028;4.170;2023-07-16T04:57:09;9.13;;;6.40;;
5967;SDS011;3010;51.028;4.170;2023-07-16T04:59:36;9.05;;;6.47;;
5967;SDS011;3010;51.028;4.170;2023-07-16T05:02:04;9.97;;;6.17;;
5967;SDS011;3010;51.028;4.170;2023-07-16T05:04:29;9.90;;;6.77;;
5967;SDS011;3010;51.028;4.170;2023-07-16T05:06:56;9.00;;;6.23;;
5967;SDS011;3010;51.028;4.170;2023-07-16T05:09:22;9.33;;;6.20;;
5967;SDS011;3010;51.028;4.170;2023-07-16T05:11:49;10.23;;;6.50;;
5967;SDS011;3010;51.028;4.170;2023-07-16T05:14:15;9.77;;;7.03;;
5967;SDS011;3010;51.028;4.170;2023-07-16T05:16:42;10.33;;;6.67;;
5967;SDS011;3010;51.028;4.170;2023-07-16T05:19:09;12.17;;;7.60;;
5967;SDS011;3010;51.028;4.170;2023-07-16T05:21:35;8.20;;;6.70;;
5967;SDS011;3010;51.028;4.170;2023-07-16T05:24:02;11.03;;;6.40;;
5967;SDS011;3010;51.028;4.170;2023-07-16T05:26:28;13.93;;;7.33;;
5967;SDS011;3010;51.028;4.170;2023-07-16T05:28:55;14.20;;;6.27;;
5967;SDS011;3010;51.028;4.170;2023-07-16T05:31:22;9.37;;;6.50;;
5967;SDS011;3010;51.028;4.170;2023-07-16T05:33:48;8.37;;;6.63;;
5967;SDS011;3010;51.028;4.170;2023-07-16T05:36:15;10.80;;;7.20;;
5967;SDS011;3010;51.028;4.170;2023-07-16T05:38:41;12.07;;;6.87;;
5967;SDS011;3010;51.028;4.170;2023-07-16T05:41:08;10.93;;;7.00;;
5967;SDS011;3010;51.028;4.170;2023-07-16T05:43:34;9.83;;;6.80;;
5967;SDS011;3010;51.028;4.170;2023-07-16T05:46:01;10.93;;;6.43;;
5967;SDS011;3010;51.028;4.170;2023-07-16T05:48:28;11.07;;;6.83;;
5967;SDS011;3010;51.028;4.170;2023-07-16T05:50:54;11.47;;;6.97;;
5967;SDS011;3010;51.028;4.170;2023-07-16T05:53:21;11.23;;;7.17;;
5967;SDS011;3010;51.028;4.170;2023-07-16T05:55:47;11.87;;;6.57;;
5967;SDS011;3010;51.028;4.170;2023-07-16T05:58:14;11.43;;;6.77;;
5967;SDS011;3010;51.028;4.170;2023-07-16T06:00:41;11.77;;;7.13;;
5967;SDS011;3010;51.028;4.170;2023-07-16T06:03:07;10.77;;;6.90;;
5967;SDS011;3010;51.028;4.170;2023-07-16T06:05:34;11.37;;;7.27;;
5967;SDS011;3010;51.028;4.170;2023-07-16T06:08:00;12.77;;;6.80;;
5967;SDS011;3010;51.028;4.170;2023-07-16T06:10:27;11.97;;;6.77;;
5967;SDS011;3010;51.028;4.170;2023-07-16T06:12:54;10.57;;;7.20;;
5967;SDS011;3010;51.028;4.170;2023-07-16T06:15:20;13.53;;;7.23;;
5967;SDS011;3010;51.028;4.170;2023-07-16T06:17:47;11.90;;;7.80;;
5967;SDS011;3010;51.028;4.170;2023-07-16T06:20:13;10.67;;;6.80;;
5967;SDS011;3010;51.028;4.170;2023-07-16T06:22:40;13.93;;;7.87;;
5967;SDS011;3010;51.028;4.170;2023-07-16T06:25:07;11.27;;;7.57;;
5967;SDS011;3010;51.028;4.170;2023-07-16T06:27:33;10.13;;;7.00;;
5967;SDS011;3010;51.028;4.170;2023-07-16T06:30:00;11.03;;;8.00;;
5967;SDS011;3010;51.028;4.170;2023-07-16T06:32:26;8.30;;;6.77;;
5967;SDS011;3010;51.028;4.170;2023-07-16T06:34:53;10.73;;;7.40;;
5967;SDS011;3010;51.028;4.170;2023-07-16T06:37:20;9.43;;;6.93;;
5967;SDS011;3010;51.028;4.170;2023-07-16T06:39:46;18.90;;;7.07;;
5967;SDS011;3010;51.028;4.170;2023-07-16T06:42:13;9.20;;;6.50;;
5967;SDS011;3010;51.028;4.170;2023-07-16T06:44:39;14.80;;;7.03;;
5967;SDS011;3010;51.028;4.170;2023-07-16T06:47:06;9.60;;;6.73;;
5967;SDS011;3010;51.028;4.170;2023-07-16T06:49:33;11.33;;;7.17;;
5967;SDS011;3010;51.028;4.170;2023-07-16T06:52:02;10.50;;;6.87;;
5967;SDS011;3010;51.028;4.170;2023-07-16T06:54:29;14.20;;;6.93;;
5967;SDS011;3010;51.028;4.170;2023-07-16T06:56:55;10.60;;;7.93;;
5967;SDS011;3010;51.028;4.170;2023-07-16T06:59:22;11.30;;;7.27;;
5967;SDS011;3010;51.028;4.170;2023-07-16T07:01:49;11.03;;;6.43;;
5967;SDS011;3010;51.028;4.170;2023-07-16T07:04:15;11.17;;;6.60;;
5967;SDS011;3010;51.028;4.170;2023-07-16T07:06:42;14.10;;;7.72;;
5967;SDS011;3010;51.028;4.170;2023-07-16T07:09:08;12.37;;;6.60;;
5967;SDS011;3010;51.028;4.170;2023-07-16T07:11:35;10.73;;;6.27;;
5967;SDS011;3010;51.028;4.170;2023-07-16T07:14:01;11.43;;;6.37;;
5967;SDS011;3010;51.028;4.170;2023-07-16T07:16:28;8.83;;;6.50;;
5967;SDS011;3010;51.028;4.170;2023-07-16T07:18:55;9.57;;;6.77;;
5967;SDS011;3010;51.028;4.170;2023-07-16T07:21:21;12.43;;;7.50;;
5967;SDS011;3010;51.028;4.170;2023-07-16T07:23:48;14.43;;;6.70;;
5967;SDS011;3010;51.028;4.170;2023-07-16T07:26:14;10.67;;;6.60;;
5967;SDS011;3010;51.028;4.170;2023-07-16T07:28:41;9.33;;;6.50;;
5967;SDS011;3010;51.028;4.170;2023-07-16T07:31:08;13.30;;;6.70;;
5967;SDS011;3010;51.028;4.170;2023-07-16T07:33:34;9.10;;;6.13;;
5967;SDS011;3010;51.028;4.170;2023-07-16T07:36:01;13.07;;;6.00;;
5967;SDS011;3010;51.028;4.170;2023-07-16T07:38:27;11.23;;;6.30;;
5967;SDS011;3010;51.028;4.170;2023-07-16T07:40:54;11.67;;;6.57;;
5967;SDS011;3010;51.028;4.170;2023-07-16T07:43:21;12.03;;;6.87;;
5967;SDS011;3010;51.028;4.170;2023-07-16T07:45:47;11.97;;;6.70;;
5967;SDS011;3010;51.028;4.170;2023-07-16T07:48:14;9.57;;;6.80;;
5967;SDS011;3010;51.028;4.170;2023-07-16T07:50:40;7.27;;;6.00;;
5967;SDS011;3010;51.028;4.170;2023-07-16T07:53:07;13.60;;;6.40;;
5967;SDS011;3010;51.028;4.170;2023-07-16T07:55:34;11.13;;;6.10;;
5967;SDS011;3010;51.028;4.170;2023-07-16T07:58:00;10.98;;;6.95;;
5967;SDS011;3010;51.028;4.170;2023-07-16T08:00:27;9.37;;;6.30;;
5967;SDS011;3010;51.028;4.170;2023-07-16T08:02:53;10.65;;;6.85;;
5967;SDS011;3010;51.028;4.170;2023-07-16T08:05:20;9.77;;;5.93;;
5967;SDS011;3010;51.028;4.170;2023-07-16T08:07:46;9.33;;;6.57;;
5967;SDS011;3010;51.028;4.170;2023-07-16T08:10:13;8.33;;;6.23;;
5967;SDS011;3010;51.028;4.170;2023-07-16T08:12:40;8.63;;;6.00;;
5967;SDS011;3010;51.028;4.170;2023-07-16T08:15:06;11.98;;;6.57;;
5967;SDS011;3010;51.028;4.170;2023-07-16T08:17:33;9.83;;;6.33;;
5967;SDS011;3010;51.028;4.170;2023-07-16T08:19:59;6.30;;;5.67;;
5967;SDS011;3010;51.028;4.170;2023-07-16T08:22:26;6.03;;;5.30;;
5967;SDS011;3010;51.028;4.170;2023-07-16T08:24:53;10.20;;;6.10;;
5967;SDS011;3010;51.028;4.170;2023-07-16T08:27:19;10.23;;;6.00;;
5967;SDS011;3010;51.028;4.170;2023-07-16T08:29:46;9.93;;;5.30;;
5967;SDS011;3010;51.028;4.170;2023-07-16T08:32:12;8.37;;;5.50;;
5967;SDS011;3010;51.028;4.170;2023-07-16T08:34:39;7.80;;;5.87;;
5967;SDS011;3010;51.028;4.170;2023-07-16T08:37:05;11.53;;;5.37;;
5967;SDS011;3010;51.028;4.170;2023-07-16T08:39:32;8.87;;;5.20;;
5967;SDS011;3010;51.028;4.170;2023-07-16T08:41:59;8.13;;;5.62;;
5967;SDS011;3010;51.028;4.170;2023-07-16T08:44:26;9.67;;;5.53;;
5967;SDS011;3010;51.028;4.170;2023-07-16T08:46:52;10.23;;;5.97;;
5967;SDS011;3010;51.028;4.170;2023-07-16T08:49:18;7.20;;;5.35;;
5967;SDS011;3010;51.028;4.170;2023-07-16T08:51:45;7.93;;;4.97;;
5967;SDS011;3010;51.028;4.170;2023-07-16T08:54:12;8.77;;;5.30;;
5967;SDS011;3010;51.028;4.170;2023-07-16T08:56:38;10.63;;;6.00;;
5967;SDS011;3010;51.028;4.170;2023-07-16T08:59:05;5.30;;;4.80;;
5967;SDS011;3010;51.028;4.170;2023-07-16T09:01:31;8.10;;;5.00;;
5967;SDS011;3010;51.028;4.170;2023-07-16T09:03:58;6.43;;;5.10;;
5967;SDS011;3010;51.028;4.170;2023-07-16T09:06:25;7.27;;;5.27;;
5967;SDS011;3010;51.028;4.170;2023-07-16T09:08:51;5.40;;;4.90;;
5967;SDS011;3010;51.028;4.170;2023-07-16T09:11:18;5.20;;;4.70;;
5967;SDS011;3010;51.028;4.170;2023-07-16T09:13:44;6.27;;;5.10;;
5967;SDS011;3010;51.028;4.170;2023-07-16T09:16:11;8.40;;;4.80;;
5967;SDS011;3010;51.028;4.170;2023-07-16T09:18:39;9.35;;;5.32;;
5967;SDS011;3010;51.028;4.170;2023-07-16T09:21:04;9.53;;;5.30;;
5967;SDS011;3010;51.028;4.170;2023-07-16T09:23:31;5.50;;;5.00;;
5967;SDS011;3010;51.028;4.170;2023-07-16T09:25:57;7.07;;;4.87;;
5967;SDS011;3010;51.028;4.170;2023-07-16T09:28:24;9.02;;;5.82;;
5967;SDS011;3010;51.028;4.170;2023-07-16T09:30:51;8.15;;;5.47;;
5967;SDS011;3010;51.028;4.170;2023-07-16T09:33:21;7.37;;;5.13;;
5967;SDS011;3010;51.028;4.170;2023-07-16T09:35:44;9.00;;;5.72;;
5967;SDS011;3010;51.028;4.170;2023-07-16T09:38:10;6.97;;;5.10;;
5967;SDS011;3010;51.028;4.170;2023-07-16T09:40:37;10.87;;;5.57;;
5967;SDS011;3010;51.028;4.170;2023-07-16T09:43:03;8.53;;;5.03;;
5967;SDS011;3010;51.028;4.170;2023-07-16T09:45:30;7.30;;;5.20;;
5967;SDS011;3010;51.028;4.170;2023-07-16T09:47:56;6.97;;;5.30;;
5967;SDS011;3010;51.028;4.170;2023-07-16T09:50:23;8.40;;;5.00;;
5967;SDS011;3010;51.028;4.170;2023-07-16T09:52:50;9.00;;;5.87;;
5967;SDS011;3010;51.028;4.170;2023-07-16T09:55:16;8.47;;;5.50;;
5967;SDS011;3010;51.028;4.170;2023-07-16T09:57:43;9.97;;;4.97;;
5967;SDS011;3010;51.028;4.170;2023-07-16T10:00:10;7.97;;;5.23;;
5967;SDS011;3010;51.028;4.170;2023-07-16T10:02:39;8.68;;;5.43;;
5967;SDS011;3010;51.028;4.170;2023-07-16T10:07:41;6.80;;;4.93;;
5967;SDS011;3010;51.028;4.170;2023-07-16T10:10:08;5.67;;;4.60;;
5967;SDS011;3010;51.028;4.170;2023-07-16T10:12:35;6.47;;;4.93;;
5967;SDS011;3010;51.028;4.170;2023-07-16T10:15:01;7.27;;;4.77;;
5967;SDS011;3010;51.028;4.170;2023-07-16T10:17:29;7.18;;;5.12;;
5967;SDS011;3010;51.028;4.170;2023-07-16T10:20:01;6.40;;;4.87;;
5967;SDS011;3010;51.028;4.170;2023-07-16T10:22:39;5.23;;;4.70;;
5967;SDS011;3010;51.028;4.170;2023-07-16T10:27:44;6.90;;;5.13;;
5967;SDS011;3010;51.028;4.170;2023-07-16T10:30:13;10.23;;;5.73;;
5967;SDS011;3010;51.028;4.170;2023-07-16T10:32:40;7.50;;;5.85;;
5967;SDS011;3010;51.028;4.170;2023-07-16T10:35:07;7.40;;;5.10;;
5967;SDS011;3010;51.028;4.170;2023-07-16T10:37:33;5.57;;;4.47;;
5967;SDS011;3010;51.028;4.170;2023-07-16T10:40:00;5.93;;;4.37;;
5967;SDS011;3010;51.028;4.170;2023-07-16T10:42:27;5.82;;;5.05;;
5967;SDS011;3010;51.028;4.170;2023-07-16T10:44:53;5.67;;;4.67;;
5967;SDS011;3010;51.028;4.170;2023-07-16T10:47:23;4.78;;;4.37;;
5967;SDS011;3010;51.028;4.170;2023-07-16T10:49:49;5.43;;;3.90;;
5967;SDS011;3010;51.028;4.170;2023-07-16T10:52:15;4.70;;;3.80;;
5967;SDS011;3010;51.028;4.170;2023-07-16T10:54:42;5.47;;;3.93;;
5967;SDS011;3010;51.028;4.170;2023-07-16T10:57:08;4.10;;;3.73;;
5967;SDS011;3010;51.028;4.170;2023-07-16T10:59:36;4.37;;;4.00;;
5967;SDS011;3010;51.028;4.170;2023-07-16T11:02:01;5.17;;;4.10;;
5967;SDS011;3010;51.028;4.170;2023-07-16T11:04:33;4.33;;;4.00;;
5967;SDS011;3010;51.028;4.170;2023-07-16T11:06:55;4.07;;;3.67;;
5967;SDS011;3010;51.028;4.170;2023-07-16T11:09:21;3.90;;;3.13;;
5967;SDS011;3010;51.028;4.170;2023-07-16T11:11:48;3.47;;;3.17;;
5967;SDS011;3010;51.028;4.170;2023-07-16T11:14:14;3.55;;;3.00;;
5967;SDS011;3010;51.028;4.170;2023-07-16T11:16:41;3.33;;;3.10;;
5967;SDS011;3010;51.028;4.170;2023-07-16T11:19:07;3.53;;;3.33;;
5967;SDS011;3010;51.028;4.170;2023-07-16T11:21:34;4.17;;;3.37;;
5967;SDS011;3010;51.028;4.170;2023-07-16T11:24:07;3.90;;;3.03;;
5967;SDS011;3010;51.028;4.170;2023-07-16T11:26:33;2.97;;;2.77;;
5967;SDS011;3010;51.028;4.170;2023-07-16T11:29:00;5.63;;;2.90;;
5967;SDS011;3010;51.028;4.170;2023-07-16T11:31:26;3.10;;;2.90;;
5967;SDS011;3010;51.028;4.170;2023-07-16T11:33:53;3.37;;;3.07;;
5967;SDS011;3010;51.028;4.170;2023-07-16T11:36:19;3.30;;;3.00;;
5967;SDS011;3010;51.028;4.170;2023-07-16T11:38:47;4.78;;;3.05;;
5967;SDS011;3010;51.028;4.170;2023-07-16T11:41:13;3.27;;;2.97;;
5967;SDS011;3010;51.028;4.170;2023-07-16T11:43:40;3.30;;;3.03;;
5967;SDS011;3010;51.028;4.170;2023-07-16T11:46:13;3.70;;;3.40;;
5967;SDS011;3010;51.028;4.170;2023-07-16T11:48:32;3.60;;;3.30;;
5967;SDS011;3010;51.028;4.170;2023-07-16T11:50:59;4.77;;;4.17;;
5967;SDS011;3010;51.028;4.170;2023-07-16T11:53:26;4.67;;;3.70;;
5967;SDS011;3010;51.028;4.170;2023-07-16T11:55:52;4.17;;;3.53;;
5967;SDS011;3010;51.028;4.170;2023-07-16T11:58:19;6.30;;;3.70;;
5967;SDS011;3010;51.028;4.170;2023-07-16T12:00:45;4.90;;;3.60;;
5967;SDS011;3010;51.028;4.170;2023-07-16T12:03:12;5.03;;;3.40;;
5967;SDS011;3010;51.028;4.170;2023-07-16T12:05:39;4.07;;;3.27;;
5967;SDS011;3010;51.028;4.170;2023-07-16T12:08:05;4.77;;;3.40;;
5967;SDS011;3010;51.028;4.170;2023-07-16T12:10:32;3.63;;;3.20;;
5967;SDS011;3010;51.028;4.170;2023-07-16T12:12:58;4.13;;;2.77;;
5967;SDS011;3010;51.028;4.170;2023-07-16T12:15:25;3.23;;;2.70;;
5967;SDS011;3010;51.028;4.170;2023-07-16T12:17:51;5.17;;;2.97;;
5967;SDS011;3010;51.028;4.170;2023-07-16T12:20:18;5.03;;;3.50;;
5967;SDS011;3010;51.028;4.170;2023-07-16T12:22:45;5.23;;;3.00;;
5967;SDS011;3010;51.028;4.170;2023-07-16T12:25:11;4.05;;;2.95;;
5967;SDS011;3010;51.028;4.170;2023-07-16T12:27:38;3.17;;;2.80;;
5967;SDS011;3010;51.028;4.170;2023-07-16T12:30:05;8.17;;;3.63;;
5967;SDS011;3010;51.028;4.170;2023-07-16T12:32:31;3.47;;;3.13;;
5967;SDS011;3010;51.028;4.170;2023-07-16T12:34:58;3.60;;;3.00;;
5967;SDS011;3010;51.028;4.170;2023-07-16T12:37:24;3.27;;;2.87;;
5967;SDS011;3010;51.028;4.170;2023-07-16T12:39:51;3.13;;;2.93;;
5967;SDS011;3010;51.028;4.170;2023-07-16T12:42:18;3.63;;;3.20;;
5967;SDS011;3010;51.028;4.170;2023-07-16T12:44:44;4.27;;;3.27;;
5967;SDS011;3010;51.028;4.170;2023-07-16T12:47:11;3.72;;;3.40;;
5967;SDS011;3010;51.028;4.170;2023-07-16T12:49:37;3.37;;;3.00;;
5967;SDS011;3010;51.028;4.170;2023-07-16T12:52:07;2.87;;;2.67;;
5967;SDS011;3010;51.028;4.170;2023-07-16T12:54:31;3.00;;;2.83;;
5967;SDS011;3010;51.028;4.170;2023-07-16T12:56:57;4.13;;;2.87;;
5967;SDS011;3010;51.028;4.170;2023-07-16T12:59:24;2.83;;;2.60;;
5967;SDS011;3010;51.028;4.170;2023-07-16T13:01:51;2.80;;;2.60;;
5967;SDS011;3010;51.028;4.170;2023-07-16T13:04:17;3.67;;;2.97;;
5967;SDS011;3010;51.028;4.170;2023-07-16T13:06:43;2.93;;;2.73;;
5967;SDS011;3010;51.028;4.170;2023-07-16T13:09:10;2.73;;;2.50;;
5967;SDS011;3010;51.028;4.170;2023-07-16T13:11:37;3.03;;;2.60;;
5967;SDS011;3010;51.028;4.170;2023-07-16T13:14:03;3.13;;;2.83;;
5967;SDS011;3010;51.028;4.170;2023-07-16T13:16:30;2.70;;;2.50;;
5967;SDS011;3010;51.028;4.170;2023-07-16T13:18:56;2.67;;;1.83;;
5967;SDS011;3010;51.028;4.170;2023-07-16T13:21:23;2.00;;;1.83;;
5967;SDS011;3010;51.028;4.170;2023-07-16T13:23:50;4.53;;;2.20;;
5967;SDS011;3010;51.028;4.170;2023-07-16T13:26:16;1.50;;;1.50;;
5967;SDS011;3010;51.028;4.170;2023-07-16T13:28:43;1.50;;;1.40;;
5967;SDS011;3010;51.028;4.170;2023-07-16T13:31:09;1.40;;;1.00;;
5967;SDS011;3010;51.028;4.170;2023-07-16T13:33:36;1.23;;;1.13;;
5967;SDS011;3010;51.028;4.170;2023-07-16T13:36:02;1.00;;;1.00;;
5967;SDS011;3010;51.028;4.170;2023-07-16T13:38:29;1.40;;;1.30;;
5967;SDS011;3010;51.028;4.170;2023-07-16T13:40:56;2.03;;;1.50;;
5967;SDS011;3010;51.028;4.170;2023-07-16T13:43:22;1.87;;;1.40;;
5967;SDS011;3010;51.028;4.170;2023-07-16T13:45:49;1.45;;;1.15;;
5967;SDS011;3010;51.028;4.170;2023-07-16T13:48:15;1.17;;;1.07;;
5967;SDS011;3010;51.028;4.170;2023-07-16T13:50:42;1.30;;;1.20;;
5967;SDS011;3010;51.028;4.170;2023-07-16T13:53:09;0.93;;;0.93;;
5967;SDS011;3010;51.028;4.170;2023-07-16T13:55:35;0.90;;;0.90;;
5967;SDS011;3010;51.028;4.170;2023-07-16T13:58:02;0.67;;;0.67;;
5967;SDS011;3010;51.028;4.170;2023-07-16T14:00:31;4.62;;;1.10;;
5967;SDS011;3010;51.028;4.170;2023-07-16T14:02:58;0.70;;;0.70;;
5967;SDS011;3010;51.028;4.170;2023-07-16T14:05:24;1.07;;;0.70;;
5967;SDS011;3010;51.028;4.170;2023-07-16T14:07:51;1.00;;;0.90;;
5967;SDS011;3010;51.028;4.170;2023-07-16T14:10:17;1.13;;;1.07;;
5967;SDS011;3010;51.028;4.170;2023-07-16T14:12:44;1.23;;;1.00;;
5967;SDS011;3010;51.028;4.170;2023-07-16T14:15:11;0.80;;;0.80;;
5967;SDS011;3010;51.028;4.170;2023-07-16T14:17:37;1.13;;;0.97;;
5967;SDS011;3010;51.028;4.170;2023-07-16T14:20:04;1.50;;;1.07;;
5967;SDS011;3010;51.028;4.170;2023-07-16T14:22:31;0.93;;;0.93;;
5967;SDS011;3010;51.028;4.170;2023-07-16T14:24:57;2.23;;;1.40;;
5967;SDS011;3010;51.028;4.170;2023-07-16T14:27:24;1.90;;;1.00;;
5967;SDS011;3010;51.028;4.170;2023-07-16T14:29:50;1.43;;;0.93;;
5967;SDS011;3010;51.028;4.170;2023-07-16T14:32:17;2.25;;;1.12;;
5967;SDS011;3010;51.028;4.170;2023-07-16T14:34:43;1.37;;;1.20;;
5967;SDS011;3010;51.028;4.170;2023-07-16T14:37:10;2.27;;;1.17;;
5967;SDS011;3010;51.028;4.170;2023-07-16T14:39:37;1.67;;;1.30;;
5967;SDS011;3010;51.028;4.170;2023-07-16T14:42:03;1.20;;;1.10;;
5967;SDS011;3010;51.028;4.170;2023-07-16T14:44:30;1.20;;;1.20;;
5967;SDS011;3010;51.028;4.170;2023-07-16T14:46:56;1.20;;;1.13;;
5967;SDS011;3010;51.028;4.170;2023-07-16T14:49:23;1.73;;;1.27;;
5967;SDS011;3010;51.028;4.170;2023-07-16T14:51:50;1.30;;;1.20;;
5967;SDS011;3010;51.028;4.170;2023-07-16T14:54:16;1.97;;;1.40;;
5967;SDS011;3010;51.028;4.170;2023-07-16T14:56:43;3.17;;;1.33;;
5967;SDS011;3010;51.028;4.170;2023-07-16T14:59:09;2.00;;;1.40;;
5967;SDS011;3010;51.028;4.170;2023-07-16T15:01:36;2.10;;;1.57;;
5967;SDS011;3010;51.028;4.170;2023-07-16T15:04:03;1.67;;;1.58;;
5967;SDS011;3010;51.028;4.170;2023-07-16T15:06:29;2.13;;;1.37;;
5967;SDS011;3010;51.028;4.170;2023-07-16T15:08:56;1.27;;;1.27;;
5967;SDS011;3010;51.028;4.170;2023-07-16T15:11:22;1.50;;;1.20;;
5967;SDS011;3010;51.028;4.170;2023-07-16T15:13:49;1.60;;;1.40;;
5967;SDS011;3010;51.028;4.170;2023-07-16T15:16:16;1.63;;;1.37;;
5967;SDS011;3010;51.028;4.170;2023-07-16T15:18:42;1.67;;;1.13;;
5967;SDS011;3010;51.028;4.170;2023-07-16T15:21:09;1.30;;;1.20;;